Salt Wells, Nevada
Current Conditions -  °F | °C
As of 6:56 PM on Saturday 25 Oct 2014 (Local Time) from KNFL Reporting Station
Clear Clear  
Wind Chill: 55°   Ceiling: Unl
Heat Index: 55°   Visibility: 10mi
Dew Point: 31°   Wind: 8mph
Humidity: 40%   Direction: 100°E
Pressure: 29.98"   Gusts: NA
Location:  39.5809°N, 118.333°W
Report Text: KNFL 260156Z AUTO 10007KT 10SM CLR 13/M01 A2998 RMK AO2 SLP123 T01281006
Loading
Personal Weather Stations






























Interactive Weather Map
Tropical Storm Tracking
New forecast layout! Learn more

10-Day Weather Forecast

Advertisements
Track Severe Weather on mobile